createdAt,value
2024-04-21T00:01:51.633Z,19.00
2024-04-21T00:04:19.071Z,19.00
2024-04-21T00:06:46.170Z,19.00
2024-04-21T00:09:13.163Z,19.00
2024-04-21T00:11:40.260Z,19.00
2024-04-21T00:14:07.246Z,19.00
2024-04-21T00:16:34.337Z,19.00
2024-04-21T00:19:01.697Z,19.00
2024-04-21T00:21:29.817Z,19.00
2024-04-21T00:23:57.392Z,19.00
2024-04-21T00:26:25.502Z,19.00
2024-04-21T00:28:53.037Z,19.00
2024-04-21T00:31:20.283Z,19.00
2024-04-21T00:33:47.500Z,19.00
2024-04-21T00:36:14.608Z,19.10
2024-04-21T00:38:41.568Z,19.10
2024-04-21T00:41:08.762Z,19.10
2024-04-21T00:43:35.749Z,19.10
2024-04-21T00:46:04.093Z,19.10
2024-04-21T00:48:31.822Z,19.10
2024-04-21T00:50:59.119Z,19.10
2024-04-21T00:53:26.606Z,19.10
2024-04-21T00:55:54.588Z,19.10
2024-04-21T00:58:21.754Z,19.10
2024-04-21T01:00:49.094Z,19.10
2024-04-21T01:03:16.604Z,19.10
2024-04-21T01:05:43.656Z,19.10
2024-04-21T01:08:10.955Z,19.10
2024-04-21T01:10:37.918Z,19.10
2024-04-21T01:13:14.294Z,19.10
2024-04-21T01:15:41.558Z,19.10
2024-04-21T01:18:09.142Z,19.10
2024-04-21T01:20:37.251Z,19.20
2024-04-21T01:23:04.872Z,19.10
2024-04-21T01:25:31.846Z,19.20
2024-04-21T01:27:58.916Z,19.20
2024-04-21T01:30:25.891Z,19.20
2024-04-21T01:32:53.011Z,19.20
2024-04-21T01:35:20.238Z,19.20
2024-04-21T01:37:47.213Z,19.20
2024-04-21T01:40:14.348Z,19.20
2024-04-21T01:42:41.414Z,19.20
2024-04-21T01:45:08.542Z,19.20
2024-04-21T01:47:35.623Z,19.20
2024-04-21T01:50:02.807Z,19.20
2024-04-21T01:52:30.770Z,19.20
2024-04-21T01:54:57.989Z,19.20
2024-04-21T01:57:24.909Z,19.20
2024-04-21T01:59:51.861Z,19.20
2024-04-21T02:02:18.947Z,19.20
2024-04-21T02:04:46.112Z,19.20
2024-04-21T02:07:13.168Z,19.20
2024-04-21T02:09:40.185Z,19.20
2024-04-21T02:12:07.744Z,19.20
2024-04-21T02:14:34.732Z,19.20
2024-04-21T02:17:02.203Z,19.20
2024-04-21T02:19:29.271Z,19.20
2024-04-21T02:21:56.373Z,19.20
2024-04-21T02:24:27.619Z,19.20
2024-04-21T02:26:54.669Z,19.20
2024-04-21T02:29:21.634Z,19.20
2024-04-21T02:31:48.597Z,19.30
2024-04-21T02:34:15.605Z,19.30
2024-04-21T02:36:42.616Z,19.20
2024-04-21T02:39:09.551Z,19.30
2024-04-21T02:41:36.567Z,19.30
2024-04-21T02:44:03.571Z,19.30
2024-04-21T02:46:30.597Z,19.30
2024-04-21T02:48:57.583Z,19.30
2024-04-21T02:51:24.556Z,19.30
2024-04-21T02:53:51.528Z,19.30
2024-04-21T02:56:18.457Z,19.30
2024-04-21T02:58:45.996Z,19.30
2024-04-21T03:01:13.026Z,19.30
2024-04-21T03:03:40.019Z,19.20
2024-04-21T03:06:07.030Z,19.30
2024-04-21T03:08:34.110Z,19.30
2024-04-21T03:11:01.120Z,19.30
2024-04-21T03:13:28.372Z,19.30
2024-04-21T03:15:55.457Z,19.30
2024-04-21T03:18:22.468Z,19.30
2024-04-21T03:20:59.551Z,19.30
2024-04-21T03:23:27.600Z,19.30
2024-04-21T03:25:54.584Z,19.30
2024-04-21T03:28:21.916Z,19.30
2024-04-21T03:30:59.907Z,19.30
2024-04-21T03:33:27.491Z,19.30
2024-04-21T03:36:11.900Z,19.30
2024-04-21T03:38:39.644Z,19.30
2024-04-21T03:41:07.008Z,19.30
2024-04-21T03:43:34.084Z,19.30
2024-04-21T03:46:01.195Z,19.30
2024-04-21T03:48:28.231Z,19.30
2024-04-21T03:50:55.153Z,19.30
2024-04-21T03:53:23.176Z,19.30
2024-04-21T03:55:50.440Z,19.30
2024-04-21T03:58:17.849Z,19.30
2024-04-21T04:00:47.746Z,19.30
2024-04-21T04:03:15.148Z,19.30
2024-04-21T04:05:46.364Z,19.40
2024-04-21T04:08:17.007Z,19.30
2024-04-21T04:10:45.281Z,19.40
2024-04-21T04:13:12.765Z,19.40
2024-04-21T04:15:41.082Z,19.40
2024-04-21T04:18:08.298Z,19.40
2024-04-21T04:20:38.244Z,19.40
2024-04-21T04:23:06.221Z,19.40
2024-04-21T04:25:33.779Z,19.40
2024-04-21T04:28:00.792Z,19.40
2024-04-21T04:30:27.902Z,19.40
2024-04-21T04:32:55.779Z,19.40
2024-04-21T04:35:22.898Z,19.40
2024-04-21T04:37:51.444Z,19.40
2024-04-21T04:40:20.145Z,19.40
2024-04-21T04:42:49.305Z,19.40
2024-04-21T04:45:17.621Z,19.40
2024-04-21T04:47:44.589Z,19.40
2024-04-21T04:50:14.080Z,19.40
2024-04-21T04:52:41.207Z,19.40
2024-04-21T04:55:08.305Z,19.40
2024-04-21T04:57:35.301Z,19.40
2024-04-21T05:00:02.246Z,19.40
2024-04-21T05:02:29.372Z,19.40
2024-04-21T05:04:56.708Z,19.40
2024-04-21T05:07:23.744Z,19.40
2024-04-21T05:09:50.788Z,19.40
2024-04-21T05:12:17.726Z,19.40
2024-04-21T05:14:44.681Z,19.40
2024-04-21T05:17:11.650Z,19.40
2024-04-21T05:19:38.657Z,19.40
2024-04-21T05:22:05.608Z,19.40
2024-04-21T05:24:32.559Z,19.30
2024-04-21T05:26:59.624Z,19.30
2024-04-21T05:29:26.586Z,19.30
2024-04-21T05:31:54.458Z,19.20
2024-04-21T05:34:21.604Z,19.20
2024-04-21T05:36:48.629Z,19.20
2024-04-21T05:39:15.681Z,19.20
2024-04-21T05:41:42.633Z,19.20
2024-04-21T05:44:09.685Z,19.20
2024-04-21T05:46:36.809Z,19.20
2024-04-21T05:49:03.819Z,19.20
2024-04-21T05:51:30.803Z,19.20
2024-04-21T05:53:58.528Z,19.20
2024-04-21T05:56:25.572Z,19.30
2024-04-21T05:58:54.658Z,19.30
2024-04-21T06:01:21.918Z,19.30
2024-04-21T06:03:49.191Z,19.30
2024-04-21T06:06:22.571Z,19.30
2024-04-21T06:08:50.573Z,19.30
2024-04-21T06:11:17.753Z,19.30
2024-04-21T06:13:44.760Z,19.30
2024-04-21T06:16:11.759Z,19.30
2024-04-21T06:18:38.831Z,19.30
2024-04-21T06:21:06.727Z,19.30
2024-04-21T06:23:33.745Z,19.40
2024-04-21T06:26:00.789Z,19.40
2024-04-21T06:28:27.906Z,19.40
2024-04-21T06:30:54.950Z,19.40
2024-04-21T06:33:21.983Z,19.40
2024-04-21T06:35:50.936Z,19.40
2024-04-21T06:38:17.893Z,19.40
2024-04-21T06:40:45.380Z,19.40
2024-04-21T06:43:12.390Z,19.40
2024-04-21T06:45:46.391Z,19.40
2024-04-21T06:48:13.744Z,19.40
2024-04-21T06:50:43.099Z,19.40
2024-04-21T06:53:10.087Z,19.40
2024-04-21T06:55:37.105Z,19.40
2024-04-21T06:58:04.484Z,19.40
2024-04-21T07:00:31.482Z,19.40
2024-04-21T07:02:58.485Z,19.40
2024-04-21T07:05:25.529Z,19.40
2024-04-21T07:07:52.547Z,19.40
2024-04-21T07:10:20.021Z,19.40
2024-04-21T07:12:47.079Z,19.40
2024-04-21T07:15:14.029Z,19.40
2024-04-21T07:17:41.166Z,19.40
2024-04-21T07:20:08.429Z,19.40
2024-04-21T07:22:35.387Z,19.40
2024-04-21T07:25:12.938Z,19.40
2024-04-21T07:27:45.936Z,19.40
2024-04-21T07:30:12.985Z,19.40
2024-04-21T07:32:40.245Z,19.40
2024-04-21T07:35:07.755Z,19.40
2024-04-21T07:37:34.712Z,19.40
2024-04-21T07:40:01.777Z,19.40
2024-04-21T07:42:28.747Z,19.40
2024-04-21T07:44:55.715Z,19.40
2024-04-21T07:47:23.125Z,19.40
2024-04-21T07:49:50.179Z,19.50
2024-04-21T07:52:17.196Z,19.40
2024-04-21T07:54:44.211Z,19.50
2024-04-21T07:57:11.191Z,19.50
2024-04-21T07:59:38.348Z,19.50
2024-04-21T08:02:05.462Z,19.50
2024-04-21T08:04:32.788Z,19.50
2024-04-21T08:06:59.784Z,19.50
2024-04-21T08:09:30.811Z,19.50
2024-04-21T08:11:58.632Z,19.50
2024-04-21T08:14:25.766Z,19.50
2024-04-21T08:16:52.750Z,19.50
2024-04-21T08:19:20.026Z,19.50
2024-04-21T08:21:47.748Z,19.60
2024-04-21T08:24:14.836Z,19.60
2024-04-21T08:26:41.933Z,19.60
2024-04-21T08:29:09.224Z,19.60
2024-04-21T08:31:36.171Z,19.60
2024-04-21T08:34:04.225Z,19.60
2024-04-21T08:36:31.296Z,19.60
2024-04-21T08:38:58.365Z,19.60
2024-04-21T08:41:28.925Z,19.60
2024-04-21T08:43:57.699Z,19.60
2024-04-21T08:46:25.495Z,19.60
2024-04-21T08:48:53.749Z,19.60
2024-04-21T08:51:22.185Z,19.60
2024-04-21T08:53:49.228Z,19.60
2024-04-21T08:56:19.008Z,19.60
2024-04-21T08:58:51.527Z,19.60
2024-04-21T09:01:20.249Z,19.60
2024-04-21T09:03:51.368Z,19.60
2024-04-21T09:06:23.564Z,19.60
2024-04-21T09:08:50.551Z,19.60
2024-04-21T09:11:17.587Z,19.50
2024-04-21T09:13:44.688Z,19.50
2024-04-21T09:16:12.284Z,19.60
2024-04-21T09:18:39.381Z,19.50
2024-04-21T09:21:06.494Z,19.60
2024-04-21T09:23:35.896Z,19.60
2024-04-21T09:26:02.898Z,19.60
2024-04-21T09:28:29.972Z,19.60
2024-04-21T09:30:57.388Z,19.60
2024-04-21T09:33:26.616Z,19.60
2024-04-21T09:35:58.970Z,19.50
2024-04-21T09:38:26.016Z,19.50
2024-04-21T09:40:56.224Z,19.60
2024-04-21T09:43:24.030Z,19.60
2024-04-21T09:45:52.315Z,19.50
2024-04-21T09:48:20.145Z,19.50
2024-04-21T09:50:51.380Z,19.50
2024-04-21T09:53:21.696Z,19.60
2024-04-21T09:55:49.124Z,19.60
2024-04-21T09:58:19.612Z,19.60
2024-04-21T10:00:53.298Z,19.60
2024-04-21T10:03:20.746Z,19.60
2024-04-21T10:05:51.788Z,19.50
2024-04-21T10:08:22.435Z,19.50
2024-04-21T10:10:54.332Z,19.60
2024-04-21T10:13:21.852Z,19.50
2024-04-21T10:15:50.134Z,19.50
2024-04-21T10:18:25.723Z,19.50
2024-04-21T10:20:54.428Z,19.60
2024-04-21T10:23:21.562Z,19.50
2024-04-21T10:25:50.500Z,19.60
2024-04-21T10:28:28.347Z,19.60
2024-04-21T10:31:09.014Z,19.60
2024-04-21T10:33:40.021Z,19.60
2024-04-21T10:36:17.768Z,19.50
2024-04-21T10:38:54.886Z,19.60
2024-04-21T10:41:22.869Z,19.50
2024-04-21T10:43:52.431Z,19.50
2024-04-21T10:46:20.948Z,19.50
2024-04-21T10:48:48.009Z,19.50
2024-04-21T10:51:15.027Z,19.50
2024-04-21T10:53:42.166Z,19.50
2024-04-21T10:56:09.980Z,19.50
2024-04-21T10:58:36.990Z,19.50
2024-04-21T11:01:04.380Z,19.50
2024-04-21T11:03:33.601Z,19.50
2024-04-21T11:06:05.768Z,19.50
2024-04-21T11:08:33.369Z,19.50
2024-04-21T11:11:00.491Z,19.50
2024-04-21T11:13:28.086Z,19.50
2024-04-21T11:15:55.196Z,19.50
2024-04-21T11:18:22.233Z,19.50
2024-04-21T11:20:49.386Z,19.50
2024-04-21T11:23:19.643Z,19.50
2024-04-21T11:25:51.821Z,19.50
2024-04-21T11:28:21.769Z,19.50
2024-04-21T11:30:49.033Z,19.50
2024-04-21T11:33:16.383Z,19.50
2024-04-21T11:35:43.628Z,19.50
2024-04-21T11:38:10.789Z,19.50
2024-04-21T11:40:41.079Z,19.50
2024-04-21T11:43:12.386Z,19.50
2024-04-21T11:45:43.578Z,19.50
2024-04-21T11:48:10.912Z,19.50
2024-04-21T11:50:39.289Z,19.50
2024-04-21T11:53:06.672Z,19.50
2024-04-21T11:55:34.454Z,19.50
2024-04-21T11:58:01.539Z,19.50
2024-04-21T12:00:28.675Z,19.50
2024-04-21T12:02:55.710Z,19.50
2024-04-21T12:05:22.731Z,19.50
2024-04-21T12:07:49.723Z,19.50
2024-04-21T12:10:16.935Z,19.50
2024-04-21T12:12:44.068Z,19.50
2024-04-21T12:15:11.143Z,19.50
2024-04-21T12:17:38.178Z,19.50
2024-04-21T12:20:05.650Z,19.50
2024-04-21T12:22:32.708Z,19.50
2024-04-21T12:24:59.769Z,19.50
2024-04-21T12:27:26.788Z,19.50
2024-04-21T12:29:53.767Z,19.50
2024-04-21T12:32:20.774Z,19.60
2024-04-21T12:34:47.786Z,19.60
2024-04-21T12:37:14.771Z,19.60
2024-04-21T12:39:41.775Z,19.60
2024-04-21T12:42:08.945Z,19.60
2024-04-21T12:44:35.917Z,19.60
2024-04-21T12:47:03.073Z,19.60
2024-04-21T12:49:30.230Z,19.60
2024-04-21T12:51:57.462Z,19.60
2024-04-21T12:54:26.266Z,19.60
2024-04-21T12:56:53.290Z,19.60
2024-04-21T12:59:20.272Z,19.60
2024-04-21T13:01:47.702Z,19.60
2024-04-21T13:04:14.969Z,19.60
2024-04-21T13:06:42.081Z,19.60
2024-04-21T13:09:09.068Z,19.60
2024-04-21T13:11:36.169Z,19.60
2024-04-21T13:14:03.107Z,19.60
2024-04-21T13:16:30.229Z,19.60
2024-04-21T13:18:57.238Z,19.60
2024-04-21T13:21:24.233Z,19.60
2024-04-21T13:23:51.278Z,19.60
2024-04-21T13:26:18.267Z,19.60
2024-04-21T13:28:45.285Z,19.60
2024-04-21T13:31:12.319Z,19.60
2024-04-21T13:33:39.303Z,19.60
2024-04-21T13:36:06.299Z,19.70
2024-04-21T13:38:33.301Z,19.70
2024-04-21T13:41:02.111Z,19.70
2024-04-21T13:43:29.895Z,19.70
2024-04-21T13:45:57.320Z,19.70
2024-04-21T13:48:24.389Z,19.70
2024-04-21T13:50:51.390Z,19.60
2024-04-21T13:53:18.643Z,19.60
2024-04-21T13:55:45.679Z,19.60
2024-04-21T13:58:12.714Z,19.60
2024-04-21T14:00:39.815Z,19.60
2024-04-21T14:03:06.830Z,19.60
2024-04-21T14:05:33.841Z,19.60
2024-04-21T14:08:00.912Z,19.60
2024-04-21T14:10:28.028Z,19.60
2024-04-21T14:12:55.215Z,19.60
2024-04-21T14:15:22.283Z,19.60
2024-04-21T14:17:49.281Z,19.60
2024-04-21T14:20:16.312Z,19.60
2024-04-21T14:22:43.472Z,19.60
2024-04-21T14:25:10.501Z,19.60
2024-04-21T14:27:37.599Z,19.60
2024-04-21T14:30:04.914Z,19.60
2024-04-21T14:32:33.375Z,19.60
2024-04-21T14:35:00.353Z,19.60
2024-04-21T14:37:27.422Z,19.60
2024-04-21T14:39:56.164Z,19.60
2024-04-21T14:42:24.015Z,19.60
2024-04-21T14:44:53.520Z,19.60
2024-04-21T14:47:20.694Z,19.60
2024-04-21T14:49:47.649Z,19.60
2024-04-21T14:52:15.875Z,19.60
2024-04-21T14:54:42.922Z,19.60
2024-04-21T14:57:09.912Z,19.60
2024-04-21T14:59:36.858Z,19.60
2024-04-21T15:02:03.933Z,19.60
2024-04-21T15:04:36.210Z,19.70
2024-04-21T15:09:00.688Z,20.00
2024-04-21T15:11:28.586Z,19.50
2024-04-21T15:13:58.721Z,19.10
2024-04-21T15:16:26.978Z,18.80
2024-04-21T15:18:54.017Z,18.60
2024-04-21T15:21:20.973Z,18.50
2024-04-21T15:23:47.923Z,18.20
2024-04-21T15:26:14.876Z,17.60
2024-04-21T15:28:41.915Z,16.70
2024-04-21T15:50:58.441Z,18.10
2024-04-21T15:53:25.426Z,17.90
2024-04-21T15:55:52.401Z,18.10
2024-04-21T15:58:19.494Z,18.20
2024-04-21T16:00:48.065Z,18.30
2024-04-21T16:03:15.180Z,18.40
2024-04-21T16:05:45.115Z,18.50
2024-04-21T16:08:12.185Z,18.70
2024-04-21T16:10:39.478Z,18.70
2024-04-21T16:13:06.523Z,18.80
2024-04-21T16:15:33.498Z,18.90
2024-04-21T16:18:00.781Z,18.90
2024-04-21T16:20:27.890Z,19.00
2024-04-21T16:22:54.892Z,19.00
2024-04-21T16:25:22.371Z,19.10
2024-04-21T16:27:49.428Z,19.10
2024-04-21T16:30:17.630Z,19.10
2024-04-21T16:32:45.034Z,19.20
2024-04-21T16:35:12.763Z,19.20
2024-04-21T16:37:40.528Z,19.20
2024-04-21T16:40:08.458Z,19.20
2024-04-21T16:42:35.678Z,19.20
2024-04-21T16:45:03.507Z,19.20
2024-04-21T16:47:36.620Z,19.20
2024-04-21T16:50:04.061Z,19.20
2024-04-21T16:52:31.365Z,19.20
2024-04-21T16:54:58.738Z,19.20
2024-04-21T16:57:29.047Z,19.20
2024-04-21T16:59:56.482Z,19.30
2024-04-21T17:02:23.797Z,19.20
2024-04-21T17:04:51.050Z,19.30
2024-04-21T17:07:18.458Z,19.30
2024-04-21T17:09:48.872Z,19.30
2024-04-21T17:12:22.154Z,19.30
2024-04-21T17:14:49.136Z,19.30
2024-04-21T17:17:18.775Z,19.30
2024-04-21T17:19:46.243Z,19.30
2024-04-21T17:22:13.311Z,19.30
2024-04-21T17:24:40.317Z,19.30
2024-04-21T17:27:10.268Z,19.20
2024-04-21T17:29:37.319Z,19.20
2024-04-21T17:32:04.581Z,19.20
2024-04-21T17:34:31.654Z,19.30
2024-04-21T17:36:58.955Z,19.30
2024-04-21T17:39:25.992Z,19.30
2024-04-21T17:41:52.959Z,19.30
2024-04-21T17:44:19.987Z,19.30
